LYBE/BEG METAR and TAF weather

Enter ICAO airport designator
Station Type Date Time Source
LYBE METAR 2019/01/23 20:30 UTC NOAA

LYBE 232030Z 01005KT 0600 R12/0650N R30/1400U FG VV003 00/00 Q0999 R12/1///95 NOSIG


Station Type Date Time Source
LYBE Decoded METAR 2019/01/23 20:30 UTC NOAA

Beograd / Surcin, Serbia and Montenegro (LYBE) 44-49N 020-17E 99M
Jan 23, 2019 - 03:30 PM EST / 2019.01.23 2030 UTC
Wind: from the N (010 degrees) at 6 MPH (5 KT):0
Visibility: less than 1 mile:0
Sky conditions: obscured
Weather: fog
Temperature: 32 F (0 C)
Windchill: 26 F (-3 C):1
Dew Point: 32 F (0 C)
Relative Humidity: 100%
Pressure (altimeter): 29.50 in. Hg (0999 hPa)
ob: LYBE 232030Z 01005KT 0600 R12/0650N R30/1400U FG VV003 00/00 Q0999 R12/1///95 NOSIG
cycle: 20

Station Type Date Time Source
LYBE TAF 2019/01/23 18:21 UTC NOAA

TAF LYBE 231700Z 2318/2418 03005KT 0600 FZFG OVC002 TXM00/2318Z TNM03/2418Z
TEMPO 2319/2324 1000 BR OVC004
BECMG 2401/2403 32010KT 1500 -SN BKN005 BKN020
TEMPO 2405/2412 0800 SN BKN003 BKN012


Example: see airport list